createdAt,value
2018-08-22T00:00:15.391Z,18.18
2018-08-22T00:02:45.924Z,18.18
2018-08-22T00:05:16.492Z,18.19
2018-08-22T00:07:46.985Z,18.14
2018-08-22T00:10:17.481Z,18.03
2018-08-22T00:12:47.994Z,17.99
2018-08-22T00:15:19.328Z,17.96
2018-08-22T00:17:50.029Z,17.92
2018-08-22T00:20:21.187Z,17.88
2018-08-22T00:22:51.923Z,17.86
2018-08-22T00:25:22.416Z,17.86
2018-08-22T00:27:52.979Z,17.79
2018-08-22T00:30:23.604Z,17.76
2018-08-22T00:32:54.107Z,17.70
2018-08-22T00:35:25.143Z,17.62
2018-08-22T00:37:55.718Z,17.58
2018-08-22T00:40:26.049Z,17.52
2018-08-22T00:42:57.393Z,17.47
2018-08-22T00:45:27.975Z,17.45
2018-08-22T00:47:58.807Z,17.41
2018-08-22T00:50:29.478Z,17.35
2018-08-22T00:53:00.399Z,17.33
2018-08-22T00:55:31.081Z,17.32
2018-08-22T00:58:01.489Z,17.31
2018-08-22T01:00:31.958Z,17.31
2018-08-22T01:03:02.423Z,17.27
2018-08-22T01:05:32.885Z,17.27
2018-08-22T01:08:03.429Z,17.29
2018-08-22T01:10:33.906Z,17.28
2018-08-22T01:13:04.412Z,17.24
2018-08-22T01:15:34.853Z,17.22
2018-08-22T01:18:05.367Z,17.23
2018-08-22T01:20:36.180Z,17.23
2018-08-22T01:23:06.886Z,17.20
2018-08-22T01:25:37.350Z,17.19
2018-08-22T01:28:07.917Z,17.18
2018-08-22T01:30:38.300Z,17.15
2018-08-22T01:33:09.161Z,17.15
2018-08-22T01:35:39.892Z,17.14
2018-08-22T01:38:10.332Z,17.09
2018-08-22T01:40:40.939Z,17.04
2018-08-22T01:43:11.288Z,16.94
2018-08-22T01:45:41.798Z,16.89
2018-08-22T01:48:12.371Z,16.85
2018-08-22T01:50:42.962Z,16.76
2018-08-22T01:53:13.479Z,16.71
2018-08-22T01:55:44.015Z,16.68
2018-08-22T01:58:14.499Z,16.66
2018-08-22T02:00:45.002Z,16.64
2018-08-22T02:03:15.649Z,16.64
2018-08-22T02:05:46.023Z,16.61
2018-08-22T02:08:16.439Z,16.59
2018-08-22T02:10:46.889Z,16.53
2018-08-22T02:13:17.344Z,16.52
2018-08-22T02:15:47.886Z,16.51
2018-08-22T02:18:18.386Z,16.49
2018-08-22T02:20:48.900Z,16.47
2018-08-22T02:23:19.550Z,16.46
2018-08-22T02:25:50.072Z,16.44
2018-08-22T02:28:21.119Z,16.41
2018-08-22T02:30:51.436Z,16.38
2018-08-22T02:33:21.881Z,16.35
2018-08-22T02:35:52.302Z,16.32
2018-08-22T02:38:25.055Z,16.28
2018-08-22T02:40:57.713Z,16.31
2018-08-22T02:43:28.139Z,16.29
2018-08-22T02:45:59.009Z,16.22
2018-08-22T02:48:29.505Z,16.13
2018-08-22T02:51:00.073Z,16.11
2018-08-22T02:53:30.455Z,16.08
2018-08-22T02:56:01.612Z,16.03
2018-08-22T02:58:32.078Z,16.04
2018-08-22T03:01:03.145Z,16.04
2018-08-22T03:03:33.623Z,16.04
2018-08-22T03:06:04.517Z,16.04
2018-08-22T03:08:35.541Z,16.05
2018-08-22T03:11:06.297Z,16.07
2018-08-22T03:13:36.679Z,16.12
2018-08-22T03:16:08.541Z,16.11
2018-08-22T03:18:38.983Z,16.05
2018-08-22T03:21:09.367Z,16.06
2018-08-22T03:23:39.789Z,16.07
2018-08-22T03:26:10.372Z,16.05
2018-08-22T03:28:40.664Z,16.00
2018-08-22T03:31:11.231Z,15.94
2018-08-22T03:33:41.841Z,15.87
2018-08-22T03:36:12.580Z,15.80
2018-08-22T03:38:43.147Z,15.79
2018-08-22T03:41:13.451Z,15.72
2018-08-22T03:43:43.984Z,15.66
2018-08-22T03:46:14.363Z,15.60
2018-08-22T03:48:45.007Z,15.58
2018-08-22T03:51:15.516Z,15.59
2018-08-22T03:53:46.145Z,15.54
2018-08-22T03:56:16.573Z,15.52
2018-08-22T03:58:46.995Z,15.53
2018-08-22T04:01:17.424Z,15.50
2018-08-22T04:03:48.056Z,15.44
2018-08-22T04:06:18.316Z,15.39
2018-08-22T04:08:48.732Z,15.35
2018-08-22T04:11:19.286Z,15.30
2018-08-22T04:13:49.921Z,15.28
2018-08-22T04:16:20.235Z,15.21
2018-08-22T04:18:50.602Z,15.15
2018-08-22T04:21:20.953Z,15.10
2018-08-22T04:23:51.522Z,15.09
2018-08-22T04:26:22.101Z,15.09
2018-08-22T04:28:52.639Z,15.15
2018-08-22T04:31:23.079Z,15.17
2018-08-22T04:33:53.570Z,15.17
2018-08-22T04:36:24.024Z,15.22
2018-08-22T04:38:54.525Z,15.29
2018-08-22T04:41:25.085Z,15.31
2018-08-22T04:43:56.256Z,15.37
2018-08-22T04:46:26.870Z,15.45
2018-08-22T04:48:57.450Z,15.50
2018-08-22T04:51:27.906Z,15.55
2018-08-22T04:53:58.370Z,15.60
2018-08-22T04:56:28.897Z,15.62
2018-08-22T04:58:59.746Z,15.67
2018-08-22T05:01:30.292Z,15.73
2018-08-22T05:04:01.094Z,15.82
2018-08-22T05:06:31.617Z,15.86
2018-08-22T05:09:02.165Z,15.91
2018-08-22T05:11:32.616Z,15.98
2018-08-22T05:14:03.394Z,16.03
2018-08-22T05:16:34.206Z,16.04
2018-08-22T05:19:04.836Z,16.02
2018-08-22T05:21:35.162Z,16.05
2018-08-22T05:24:05.889Z,16.31
2018-08-22T05:26:36.367Z,16.87
2018-08-22T05:29:06.972Z,17.42
2018-08-22T05:31:37.424Z,17.89
2018-08-22T05:34:08.050Z,18.43
2018-08-22T05:36:38.277Z,18.94
2018-08-22T05:39:12.924Z,19.43
2018-08-22T05:41:44.004Z,19.76
2018-08-22T05:44:16.650Z,20.14
2018-08-22T05:46:47.593Z,20.13
2018-08-22T05:49:19.332Z,20.42
2018-08-22T05:51:50.205Z,20.59
2018-08-22T05:54:21.487Z,21.02
2018-08-22T05:56:52.412Z,21.04
2018-08-22T05:59:23.465Z,21.47
2018-08-22T06:01:54.061Z,21.86
2018-08-22T06:04:24.878Z,22.34
2018-08-22T06:06:55.523Z,22.70
2018-08-22T06:09:26.764Z,22.77
2018-08-22T06:11:58.306Z,22.95
2018-08-22T06:14:29.045Z,23.39
2018-08-22T06:17:00.195Z,23.71
2018-08-22T06:19:31.598Z,23.39
2018-08-22T06:22:02.401Z,23.74
2018-08-22T06:24:32.993Z,23.96
2018-08-22T06:27:03.655Z,24.40
2018-08-22T06:29:34.242Z,24.83
2018-08-22T06:32:04.977Z,24.95
2018-08-22T06:34:35.534Z,25.29
2018-08-22T06:37:06.304Z,25.65
2018-08-22T06:39:36.863Z,25.96
2018-08-22T06:42:07.399Z,26.27
2018-08-22T06:44:37.740Z,26.60
2018-08-22T06:47:08.086Z,27.00
2018-08-22T06:49:38.972Z,27.08
2018-08-22T06:52:09.325Z,27.36
2018-08-22T06:54:39.573Z,27.04
2018-08-22T06:57:09.967Z,27.21
2018-08-22T06:59:40.327Z,27.69
2018-08-22T07:02:11.065Z,27.91
2018-08-22T07:04:41.578Z,28.34
2018-08-22T07:07:15.097Z,28.60
2018-08-22T07:09:46.980Z,28.82
2018-08-22T07:12:20.420Z,29.09
2018-08-22T07:14:50.877Z,29.45
2018-08-22T07:17:22.083Z,29.62
2018-08-22T07:19:52.514Z,30.19
2018-08-22T07:22:26.122Z,29.82
2018-08-22T07:24:56.885Z,30.38
2018-08-22T07:27:28.652Z,30.51
2018-08-22T07:29:59.149Z,31.41
2018-08-22T07:32:29.767Z,31.42
2018-08-22T07:35:00.170Z,31.46
2018-08-22T07:37:30.685Z,30.94
2018-08-22T07:40:01.089Z,31.42
2018-08-22T07:42:31.530Z,32.08
2018-08-22T07:45:02.512Z,32.25
2018-08-22T07:47:32.879Z,32.45
2018-08-22T07:50:03.296Z,32.92
2018-08-22T07:52:34.389Z,33.07
2018-08-22T07:55:06.986Z,33.81
2018-08-22T07:57:37.677Z,34.27
2018-08-22T08:00:08.878Z,34.47
2018-08-22T08:02:39.391Z,34.14
2018-08-22T08:05:09.809Z,34.00
2018-08-22T08:07:40.476Z,34.64
2018-08-22T08:10:17.667Z,34.70
2018-08-22T08:12:48.858Z,34.93
2018-08-22T08:15:19.224Z,34.89
2018-08-22T08:17:50.054Z,35.25
2018-08-22T08:20:20.500Z,35.53
2018-08-22T08:22:51.000Z,35.65
2018-08-22T08:25:21.607Z,36.02
2018-08-22T08:27:55.559Z,36.33
2018-08-22T08:30:26.238Z,36.31
2018-08-22T08:32:57.165Z,36.03
2018-08-22T08:35:27.975Z,36.75
2018-08-22T08:38:00.227Z,37.21
2018-08-22T08:40:31.611Z,37.99
2018-08-22T08:43:03.212Z,38.14
2018-08-22T08:45:33.903Z,38.31
2018-08-22T08:48:05.450Z,38.07
2018-08-22T08:50:36.243Z,37.71
2018-08-22T08:53:08.076Z,37.05
2018-08-22T08:55:39.562Z,36.72
2018-08-22T08:58:12.567Z,36.99
2018-08-22T09:00:43.438Z,37.44
2018-08-22T09:03:19.065Z,38.17
2018-08-22T09:05:50.861Z,38.99
2018-08-22T09:08:22.822Z,39.28
2018-08-22T09:10:56.747Z,39.54
2018-08-22T09:13:27.671Z,39.70
2018-08-22T09:15:58.053Z,39.26
2018-08-22T09:18:28.369Z,39.27
2018-08-22T09:20:59.176Z,38.56
2018-08-22T09:23:29.436Z,38.29
2018-08-22T09:25:59.833Z,38.35
2018-08-22T09:28:30.207Z,38.41
2018-08-22T09:31:01.368Z,38.64
2018-08-22T09:33:32.068Z,39.14
2018-08-22T09:36:02.457Z,39.14
2018-08-22T09:38:32.823Z,40.02
2018-08-22T09:41:03.258Z,40.34
2018-08-22T09:43:34.219Z,40.67
2018-08-22T09:46:04.805Z,40.29
2018-08-22T09:48:35.515Z,40.27
2018-08-22T09:51:06.140Z,40.71
2018-08-22T09:53:36.551Z,40.92
2018-08-22T09:56:07.629Z,40.67
2018-08-22T09:58:38.134Z,40.24
2018-08-22T10:01:13.541Z,39.68
2018-08-22T10:03:57.731Z,40.18
2018-08-22T10:06:42.829Z,40.41
2018-08-22T10:09:17.626Z,40.40
2018-08-22T10:11:48.111Z,40.50
2018-08-22T10:14:18.832Z,40.54
2018-08-22T10:16:49.213Z,41.00
2018-08-22T10:19:19.732Z,39.44
2018-08-22T10:21:50.204Z,40.75
2018-08-22T10:24:21.436Z,40.85
2018-08-22T10:26:51.958Z,38.67
2018-08-22T10:29:22.392Z,38.97
2018-08-22T10:31:52.791Z,39.51
2018-08-22T10:34:23.272Z,37.30
2018-08-22T10:36:54.625Z,36.84
2018-08-22T10:39:25.198Z,38.13
2018-08-22T10:41:55.782Z,39.01
2018-08-22T10:44:26.347Z,39.76
2018-08-22T10:46:57.339Z,40.50
2018-08-22T10:49:28.053Z,41.30
2018-08-22T10:51:58.495Z,40.47
2018-08-22T10:54:29.011Z,37.46
2018-08-22T10:56:59.508Z,38.85
2018-08-22T10:59:29.934Z,39.48
2018-08-22T11:02:01.062Z,38.17
2018-08-22T11:04:31.601Z,40.04
2018-08-22T11:07:03.383Z,41.04
2018-08-22T11:09:33.820Z,41.80
2018-08-22T11:12:04.292Z,37.35
2018-08-22T11:14:35.023Z,37.22
2018-08-22T11:17:05.773Z,39.21
2018-08-22T11:19:38.348Z,35.68
2018-08-22T11:22:25.114Z,36.72
2018-08-22T11:25:12.233Z,38.84
2018-08-22T11:27:59.210Z,39.69
2018-08-22T11:30:46.139Z,39.84
2018-08-22T11:33:32.981Z,40.47
2018-08-22T11:36:01.150Z,38.56
2018-08-22T11:38:31.948Z,39.08
2018-08-22T11:41:02.637Z,38.10
2018-08-22T11:43:33.060Z,39.21
2018-08-22T11:46:03.596Z,40.03
2018-08-22T11:48:34.083Z,37.48
2018-08-22T11:51:04.571Z,38.44
2018-08-22T11:53:35.145Z,36.77
2018-08-22T11:56:05.806Z,37.41
2018-08-22T11:58:36.439Z,38.05
2018-08-22T12:01:07.155Z,36.41
2018-08-22T12:03:37.692Z,35.51
2018-08-22T12:06:08.327Z,35.72
2018-08-22T12:08:38.687Z,36.31
2018-08-22T12:11:09.277Z,35.67
2018-08-22T12:13:39.885Z,35.77
2018-08-22T12:16:11.051Z,36.93
2018-08-22T12:18:44.587Z,38.25
2018-08-22T12:21:15.405Z,39.12
2018-08-22T12:23:46.036Z,39.75
2018-08-22T12:26:16.618Z,39.54
2018-08-22T12:28:49.034Z,38.62
2018-08-22T12:31:19.453Z,38.83
2018-08-22T12:33:50.888Z,39.46
2018-08-22T12:36:22.754Z,38.84
2018-08-22T12:38:54.217Z,38.80
2018-08-22T12:41:25.569Z,36.73
2018-08-22T12:43:57.750Z,37.56
2018-08-22T12:46:28.679Z,38.60
2018-08-22T12:49:00.018Z,39.43
2018-08-22T12:51:31.516Z,38.87
2018-08-22T12:54:02.413Z,39.38
2018-08-22T12:56:33.099Z,39.81
2018-08-22T12:59:03.671Z,39.93
2018-08-22T13:01:34.431Z,40.39
2018-08-22T13:04:05.630Z,40.28
2018-08-22T13:06:36.206Z,40.10
2018-08-22T13:09:10.831Z,38.96
2018-08-22T13:11:42.234Z,37.29
2018-08-22T13:14:13.025Z,38.02
2018-08-22T13:16:44.532Z,37.66
2018-08-22T13:19:15.057Z,37.43
2018-08-22T13:21:45.562Z,36.90
2018-08-22T13:24:17.013Z,36.21
2018-08-22T13:26:49.970Z,34.96
2018-08-22T13:29:21.070Z,35.44
2018-08-22T13:31:51.675Z,36.17
2018-08-22T13:34:22.078Z,36.06
2018-08-22T13:36:53.426Z,36.17
2018-08-22T13:39:24.278Z,36.27
2018-08-22T13:41:54.768Z,36.16
2018-08-22T13:44:25.319Z,36.61
2018-08-22T13:46:55.710Z,37.38
2018-08-22T13:49:26.404Z,38.45
2018-08-22T13:51:56.781Z,38.92
2018-08-22T13:54:27.142Z,39.08
2018-08-22T13:56:57.535Z,39.01
2018-08-22T13:59:27.997Z,38.44
2018-08-22T14:01:58.608Z,38.07
2018-08-22T14:04:30.181Z,37.46
2018-08-22T14:07:01.355Z,34.10
2018-08-22T14:09:33.300Z,32.48
2018-08-22T14:12:03.896Z,31.21
2018-08-22T14:14:34.372Z,29.32
2018-08-22T14:17:08.837Z,26.95
2018-08-22T14:19:40.351Z,25.85
2018-08-22T14:22:15.562Z,25.34
2018-08-22T14:24:47.324Z,24.68
2018-08-22T14:27:18.665Z,24.32
2018-08-22T14:29:50.546Z,24.14
2018-08-22T14:32:23.049Z,23.53
2018-08-22T14:35:01.683Z,23.56
2018-08-22T14:37:34.633Z,23.46
2018-08-22T15:07:05.776Z,21.24
2018-08-22T15:09:36.517Z,21.07
2018-08-22T15:12:07.012Z,21.08
2018-08-22T15:14:37.671Z,21.43
2018-08-22T15:17:08.073Z,21.61
2018-08-22T15:19:38.818Z,21.69
2018-08-22T15:22:09.248Z,21.63
2018-08-22T15:24:39.661Z,21.66
2018-08-22T15:27:10.091Z,21.58
2018-08-22T15:29:41.750Z,21.39
2018-08-22T15:32:13.445Z,21.15
2018-08-22T15:34:52.540Z,20.87
2018-08-22T15:37:23.503Z,20.88
2018-08-22T15:39:54.048Z,20.88
2018-08-22T15:42:24.992Z,20.93
2018-08-22T15:44:56.658Z,21.04
2018-08-22T15:47:27.537Z,21.00
2018-08-22T15:49:57.940Z,20.84
2018-08-22T15:52:28.662Z,20.83
2018-08-22T15:55:19.475Z,20.89
2018-08-22T15:58:02.439Z,20.96
2018-08-22T16:00:36.895Z,20.99
2018-08-22T16:03:08.727Z,21.10
2018-08-22T16:05:40.583Z,21.28
2018-08-22T16:08:14.355Z,21.41
2018-08-22T16:10:45.213Z,21.54
2018-08-22T16:29:15.389Z,21.92
2018-08-22T19:16:45.651Z,20.56
2018-08-22T19:19:19.515Z,20.46
2018-08-22T19:21:55.622Z,20.41
2018-08-22T19:24:28.148Z,20.35
2018-08-22T19:27:00.344Z,20.38
2018-08-22T19:29:33.063Z,20.42
2018-08-22T19:32:04.797Z,20.41
2018-08-22T19:34:37.229Z,20.45
2018-08-22T19:37:08.777Z,20.45
2018-08-22T19:39:49.991Z,20.43
2018-08-22T19:42:21.397Z,20.41
2018-08-22T19:44:52.879Z,20.43
2018-08-22T19:47:24.429Z,20.47
2018-08-22T19:49:55.832Z,20.55
2018-08-22T19:52:27.576Z,20.54
2018-08-22T19:55:00.653Z,20.42
2018-08-22T19:57:35.491Z,20.35
2018-08-22T20:00:10.102Z,20.34
2018-08-22T20:02:42.121Z,20.24
2018-08-22T20:05:15.580Z,20.21
2018-08-22T20:07:47.188Z,20.13
2018-08-22T20:10:25.462Z,20.15
2018-08-22T20:12:57.934Z,20.18
2018-08-22T20:15:31.672Z,20.15
2018-08-22T20:18:04.127Z,20.09
2018-08-22T20:20:37.448Z,20.08
2018-08-22T20:23:10.886Z,20.03
2018-08-22T20:25:43.536Z,19.97
2018-08-22T20:28:16.395Z,19.94
2018-08-22T20:30:51.277Z,19.91
2018-08-22T20:33:24.161Z,19.89
2018-08-22T20:35:57.108Z,19.89
2018-08-22T20:38:29.523Z,19.90
2018-08-22T20:41:09.906Z,19.77
2018-08-22T20:43:43.065Z,19.72
2018-08-22T20:46:17.560Z,19.62
2018-08-22T20:48:52.257Z,19.54
2018-08-22T20:51:23.858Z,19.45
2018-08-22T20:54:01.106Z,19.39
2018-08-22T20:56:33.744Z,19.31
2018-08-22T20:59:04.602Z,19.39
2018-08-22T21:01:36.375Z,19.37
2018-08-22T21:04:07.868Z,19.35
2018-08-22T21:06:39.546Z,19.34
2018-08-22T21:09:10.390Z,19.28
2018-08-22T21:11:42.799Z,19.20
2018-08-22T21:14:13.681Z,19.18
2018-08-22T21:16:44.133Z,19.14
2018-08-22T21:19:16.425Z,19.09
2018-08-22T21:21:48.730Z,19.03
2018-08-22T21:24:21.520Z,18.98
2018-08-22T21:26:52.371Z,19.02
2018-08-22T21:29:22.737Z,19.00
2018-08-22T21:31:53.372Z,19.00
2018-08-22T21:34:24.650Z,18.99
2018-08-22T21:36:55.059Z,19.02
2018-08-22T21:39:27.162Z,19.02
2018-08-22T21:41:57.666Z,19.00
2018-08-22T21:44:28.178Z,18.95
2018-08-22T21:47:04.322Z,18.97
2018-08-22T21:49:34.790Z,18.98
2018-08-22T21:52:05.587Z,18.95
2018-08-22T21:54:36.059Z,18.88
2018-08-22T21:57:06.550Z,18.93
2018-08-22T21:59:37.727Z,18.84
2018-08-22T22:02:09.492Z,18.84
2018-08-22T22:04:41.166Z,18.78
2018-08-22T22:07:12.644Z,18.71
2018-08-22T22:09:43.023Z,18.67
2018-08-22T22:12:19.265Z,18.64
2018-08-22T22:14:49.563Z,18.60
2018-08-22T22:17:19.905Z,18.62
2018-08-22T22:19:50.188Z,18.56
2018-08-22T22:22:20.647Z,18.49
2018-08-22T22:24:55.979Z,18.46
2018-08-22T22:27:26.849Z,18.41
2018-08-22T22:30:05.378Z,18.39
2018-08-22T22:32:35.859Z,18.41
2018-08-22T22:35:06.336Z,18.38
2018-08-22T22:37:36.768Z,18.35
2018-08-22T22:40:07.742Z,18.34
2018-08-22T22:42:39.752Z,18.37
2018-08-22T22:45:10.055Z,18.36
2018-08-22T22:47:40.445Z,18.47
2018-08-22T22:50:10.793Z,18.42
2018-08-22T22:52:46.110Z,18.43
2018-08-22T22:55:16.525Z,18.35
2018-08-22T22:57:46.983Z,18.30
2018-08-22T23:00:19.487Z,18.24
2018-08-22T23:02:55.106Z,18.15
2018-08-22T23:05:29.593Z,18.12
2018-08-22T23:08:02.482Z,18.10
2018-08-22T23:10:33.786Z,18.10
2018-08-22T23:13:04.219Z,18.15
2018-08-22T23:15:35.873Z,18.16
2018-08-22T23:18:06.151Z,18.13
2018-08-22T23:20:41.597Z,18.10
2018-08-22T23:23:29.715Z,18.03
2018-08-22T23:26:24.563Z,17.93
2018-08-22T23:28:55.037Z,17.87
2018-08-22T23:31:25.399Z,17.84
2018-08-22T23:33:55.671Z,17.83
2018-08-22T23:36:26.101Z,17.77
2018-08-22T23:38:56.360Z,17.76
2018-08-22T23:41:27.253Z,17.70
2018-08-22T23:43:57.553Z,17.67
2018-08-22T23:46:27.970Z,17.71
2018-08-22T23:48:59.568Z,17.71
2018-08-22T23:51:30.105Z,17.68
2018-08-22T23:54:01.714Z,17.62
2018-08-22T23:56:33.262Z,17.54
2018-08-22T23:59:03.600Z,17.48
